Terminal Aerodrome Forecast
Issued by NWS

Home | Current Version | Previous Version | Graphics & Text | Print | Product List | Glossary On
Versions: 1 2 3 4 5 6 7 8 9 10 11 12 13 14 15
000
FTUS43 KICT 232340
TAFCNU
TAF
KCNU 232340Z 2400/2424 15013KT P6SM BKN150
     FM240500 32022G26KT P6SM SCT020
     FM240700 33022G26KT P6SM OVC017=

USA.gov is the U.S. government's official web portal to all federal, state and local government web resources and services.